Time;durP1;ratioP1;P1;durP2;ratioP2;P2;SDS_P1;SDS_P2;PMS_P1;PMS_P2;Temp;Humidity;BMP_temperature;BMP_pressure;BME280_temperature;BME280_humidity;BME280_pressure;Samples;Min_cycle;Max_cycle;Signal;HPM_P1;HPM_P2
2021/07/24 00:00:24;;;;;;;2.92;2.55;;;23.70;99.90;;;;;;5052145;28;20025;-74
2021/07/24 00:02:50;;;;;;;4.40;2.58;;;23.60;99.90;;;;;;5052488;28;20435;-70
2021/07/24 00:05:16;;;;;;;3.25;2.85;;;23.60;99.90;;;;;;5050901;28;20028;-73
2021/07/24 00:07:41;;;;;;;4.28;2.65;;;23.60;99.90;;;;;;5052193;28;20029;-76
2021/07/24 00:10:07;;;;;;;3.17;2.50;;;23.60;99.90;;;;;;5051495;28;20021;-71
2021/07/24 00:12:33;;;;;;;4.05;3.00;;;23.60;99.90;;;;;;5052319;28;20481;-72
2021/07/24 00:14:59;;;;;;;2.63;2.42;;;23.60;99.90;;;;;;5052051;28;20021;-73
2021/07/24 00:17:25;;;;;;;3.72;2.65;;;23.50;99.90;;;;;;5051948;28;20029;-77
2021/07/24 00:19:51;;;;;;;3.65;2.60;;;23.50;99.90;;;;;;5051572;28;20078;-73
2021/07/24 00:22:17;;;;;;;3.38;2.63;;;23.50;99.90;;;;;;5052269;28;20489;-76
2021/07/24 00:24:42;;;;;;;3.53;2.70;;;23.50;99.90;;;;;;5052041;28;20108;-73
2021/07/24 00:27:09;;;;;;;2.92;2.50;;;23.60;99.90;;;;;;5051327;28;20477;-73
2021/07/24 00:29:35;;;;;;;4.25;2.83;;;23.50;99.90;;;;;;5051627;28;20029;-74
2021/07/24 00:32:02;;;;;;;3.78;2.83;;;23.50;99.90;;;;;;5050306;28;20050;-73
2021/07/24 00:34:28;;;;;;;3.20;2.67;;;23.50;99.90;;;;;;5051577;28;20028;-76
2021/07/24 00:36:55;;;;;;;3.72;2.83;;;23.50;99.90;;;;;;5051487;28;20029;-73
2021/07/24 00:39:21;;;;;;;3.45;2.78;;;23.40;99.90;;;;;;5051019;28;20021;-72
2021/07/24 00:41:52;;;;;;;4.03;2.55;;;23.40;99.90;;;;;;5051749;28;20090;-71
2021/07/24 00:44:22;;;;;;;4.80;2.72;;;23.50;99.90;;;;;;5051865;28;20032;-77
2021/07/24 00:46:50;;;;;;;4.20;2.80;;;23.40;99.90;;;;;;5051965;28;20024;-77
2021/07/24 00:49:20;;;;;;;3.08;2.70;;;23.40;99.90;;;;;;5051896;28;20029;-76
2021/07/24 00:51:47;;;;;;;3.17;2.83;;;23.40;99.90;;;;;;5052015;28;20359;-73
2021/07/24 00:54:13;;;;;;;2.95;2.40;;;23.40;99.90;;;;;;5051105;28;20031;-75
2021/07/24 00:56:40;;;;;;;3.58;3.00;;;23.40;99.90;;;;;;5051611;28;20104;-73
2021/07/24 00:59:06;;;;;;;3.28;2.97;;;23.40;99.90;;;;;;5051286;28;20049;-73
2021/07/24 01:01:32;;;;;;;3.70;2.78;;;23.40;99.90;;;;;;5051345;28;20028;-76
2021/07/24 01:03:58;;;;;;;4.72;2.78;;;23.40;99.90;;;;;;5050977;28;20094;-76
2021/07/24 01:06:24;;;;;;;2.80;2.53;;;23.40;99.90;;;;;;5051024;28;20024;-72
2021/07/24 01:08:51;;;;;;;3.25;2.88;;;23.40;99.90;;;;;;5050983;28;20036;-73
2021/07/24 01:11:17;;;;;;;3.88;3.22;;;23.40;99.90;;;;;;5051560;28;20033;-75
2021/07/24 01:13:43;;;;;;;3.17;2.60;;;23.30;99.90;;;;;;5050897;28;20036;-78
2021/07/24 01:16:12;;;;;;;3.58;2.75;;;23.40;99.90;;;;;;5050920;28;20406;-77
2021/07/24 01:18:37;;;;;;;4.07;3.10;;;23.30;99.90;;;;;;5051196;28;20043;-76
2021/07/24 01:21:07;;;;;;;3.22;2.92;;;23.30;99.90;;;;;;5050816;28;20444;-73
2021/07/24 01:23:33;;;;;;;3.72;2.78;;;23.30;99.90;;;;;;5051100;28;20028;-73
2021/07/24 01:25:58;;;;;;;4.18;2.83;;;23.30;99.90;;;;;;5050408;28;20028;-74
2021/07/24 01:28:42;;;;;;;3.15;2.85;;;23.30;99.90;;;;;;5051057;28;20029;-75
2021/07/24 01:31:08;;;;;;;3.28;2.72;;;23.30;99.90;;;;;;5050638;28;20025;-77
2021/07/24 01:33:34;;;;;;;3.30;2.97;;;23.30;99.90;;;;;;5050690;28;20029;-78
2021/07/24 01:36:00;;;;;;;3.45;3.15;;;23.30;99.90;;;;;;5050681;28;20104;-72
2021/07/24 01:38:26;;;;;;;3.90;3.17;;;23.30;99.90;;;;;;5050524;28;20075;-74
2021/07/24 01:40:51;;;;;;;4.07;3.17;;;23.30;99.90;;;;;;5050563;28;20024;-78
2021/07/24 01:43:17;;;;;;;3.67;2.97;;;23.30;99.90;;;;;;5051439;28;20032;-77
2021/07/24 01:45:43;;;;;;;3.65;3.10;;;23.30;99.90;;;;;;5049264;28;20095;-78
2021/07/24 01:48:14;;;;;;;5.18;3.10;;;23.30;99.90;;;;;;5050872;28;20040;-75
2021/07/24 01:53:27;;;;;;;3.35;2.90;;;23.20;99.90;;;;;;5055183;28;20040;-75
2021/07/24 01:55:56;;;;;;;4.55;3.15;;;23.20;99.90;;;;;;5054827;28;20025;-77
2021/07/24 01:58:40;;;;;;;3.70;3.30;;;23.20;99.90;;;;;;5054795;28;20021;-76
2021/07/24 02:01:06;;;;;;;3.72;3.03;;;23.20;99.90;;;;;;5054370;28;20381;-78
2021/07/24 02:03:42;;;;;;;3.53;3.03;;;23.20;99.90;;;;;;5054579;28;20025;-71
2021/07/24 02:06:11;;;;;;;3.50;3.00;;;23.20;99.90;;;;;;5054388;28;20029;-78
2021/07/24 02:08:37;;;;;;;3.45;2.88;;;23.20;99.90;;;;;;5054286;28;20412;-75
2021/07/24 02:11:04;;;;;;;3.50;3.20;;;23.20;99.90;;;;;;5054224;28;20017;-76
2021/07/24 02:13:30;;;;;;;3.33;3.00;;;23.20;99.90;;;;;;5052850;28;20064;-78
2021/07/24 02:15:56;;;;;;;3.55;3.00;;;23.20;99.90;;;;;;5053915;28;20135;-74
2021/07/24 02:18:23;;;;;;;3.53;2.80;;;23.10;99.90;;;;;;5054327;28;20029;-77
2021/07/24 02:20:49;;;;;;;3.70;2.95;;;23.10;99.90;;;;;;5054631;28;20377;-78
2021/07/24 02:23:16;;;;;;;3.78;3.03;;;23.20;99.90;;;;;;5054897;28;20056;-76
2021/07/24 02:25:43;;;;;;;4.30;3.50;;;23.10;99.90;;;;;;5054205;28;20107;-75
2021/07/24 02:28:09;;;;;;;4.28;3.30;;;23.20;99.90;;;;;;5053706;28;20038;-76
2021/07/24 02:30:35;;;;;;;4.30;3.20;;;23.10;99.90;;;;;;5053900;28;20029;-73
2021/07/24 02:33:01;;;;;;;3.80;3.10;;;23.10;99.90;;;;;;5053576;28;20021;-73
2021/07/24 02:35:27;;;;;;;4.03;3.10;;;23.10;99.90;;;;;;5054139;28;20035;-76
2021/07/24 02:37:52;;;;;;;4.28;3.08;;;23.10;99.90;;;;;;5053642;28;20377;-77
2021/07/24 02:40:20;;;;;;;3.95;3.42;;;23.10;99.90;;;;;;5053674;28;20485;-73
2021/07/24 02:42:46;;;;;;;3.53;3.20;;;23.10;99.90;;;;;;5054372;28;20120;-73
2021/07/24 02:45:11;;;;;;;4.05;2.90;;;23.00;99.90;;;;;;5053587;28;20061;-77
2021/07/24 02:47:37;;;;;;;4.30;3.08;;;23.10;99.90;;;;;;5054052;28;20473;-79
2021/07/24 02:50:03;;;;;;;5.05;3.33;;;23.00;99.90;;;;;;5053553;28;20099;-76
2021/07/24 02:52:29;;;;;;;3.40;3.10;;;23.00;99.90;;;;;;5053780;28;20029;-76
2021/07/24 02:54:54;;;;;;;3.97;3.05;;;23.00;99.90;;;;;;5053328;28;20029;-78
2021/07/24 02:57:20;;;;;;;4.07;3.13;;;23.00;99.90;;;;;;5053861;28;20025;-78
2021/07/24 02:59:46;;;;;;;3.55;3.25;;;23.00;99.90;;;;;;5053890;28;20025;-78
2021/07/24 03:02:16;;;;;;;3.45;3.15;;;23.00;99.90;;;;;;5052046;28;20037;-75
2021/07/24 03:04:42;;;;;;;4.22;3.47;;;23.00;99.90;;;;;;5053011;28;20032;-74
2021/07/24 03:07:08;;;;;;;3.47;3.17;;;23.00;99.90;;;;;;5052101;28;20028;-75
2021/07/24 03:09:34;;;;;;;4.28;3.15;;;23.00;99.90;;;;;;5052186;28;20090;-77
2021/07/24 03:12:00;;;;;;;4.35;3.60;;;23.00;99.90;;;;;;5052878;28;20099;-77
2021/07/24 03:14:25;;;;;;;3.90;3.38;;;23.00;99.90;;;;;;5053077;28;20156;-75
2021/07/24 03:16:51;;;;;;;3.50;3.13;;;23.00;99.90;;;;;;5053091;28;20095;-73
2021/07/24 03:19:17;;;;;;;3.78;3.45;;;23.00;99.90;;;;;;5053566;28;20029;-71
2021/07/24 03:21:42;;;;;;;3.65;3.15;;;23.00;99.90;;;;;;5052673;28;20035;-76
2021/07/24 03:24:08;;;;;;;3.75;3.38;;;23.00;99.90;;;;;;5052741;28;20107;-75
2021/07/24 03:26:34;;;;;;;4.15;3.60;;;23.00;99.90;;;;;;5052773;28;20031;-78
2021/07/24 03:28:59;;;;;;;3.90;3.40;;;22.90;99.90;;;;;;5052860;28;20447;-73
2021/07/24 03:31:25;;;;;;;4.38;3.45;;;22.90;99.90;;;;;;5053109;28;20553;-71
2021/07/24 03:33:51;;;;;;;5.30;3.38;;;22.90;99.90;;;;;;5052664;28;20025;-77
2021/07/24 03:36:16;;;;;;;3.55;3.25;;;22.90;99.90;;;;;;5053514;28;20032;-76
2021/07/24 03:38:42;;;;;;;3.70;2.92;;;22.90;99.90;;;;;;5052985;28;20032;-76
2021/07/24 03:41:07;;;;;;;4.07;3.20;;;22.90;99.90;;;;;;5051107;28;20033;-74
2021/07/24 03:43:33;;;;;;;3.22;2.92;;;22.90;99.90;;;;;;5052410;28;20075;-73
2021/07/24 03:45:59;;;;;;;4.13;3.20;;;22.90;99.90;;;;;;5052128;28;20080;-76
2021/07/24 03:48:25;;;;;;;3.70;3.22;;;22.90;99.90;;;;;;5051710;28;20051;-77
2021/07/24 03:50:51;;;;;;;3.63;3.33;;;22.90;99.90;;;;;;5052451;28;20021;-74
2021/07/24 03:53:16;;;;;;;5.78;3.47;;;22.90;99.90;;;;;;5053227;28;20029;-77
2021/07/24 03:55:42;;;;;;;3.40;3.10;;;22.90;99.90;;;;;;5052229;28;20592;-78
2021/07/24 03:58:08;;;;;;;3.65;3.25;;;22.90;99.90;;;;;;5052167;28;20033;-76
2021/07/24 04:00:38;;;;;;;3.58;3.28;;;22.90;99.90;;;;;;5051148;28;20036;-76
2021/07/24 04:03:04;;;;;;;3.20;2.83;;;22.90;99.90;;;;;;5052401;28;20037;-75
2021/07/24 04:05:34;;;;;;;3.65;3.25;;;22.90;99.90;;;;;;5052115;28;20036;-77
2021/07/24 04:08:00;;;;;;;3.70;3.40;;;22.90;99.90;;;;;;5050787;28;20100;-75
2021/07/24 04:10:26;;;;;;;5.35;3.42;;;22.90;99.90;;;;;;5043285;28;20036;-75
2021/07/24 04:12:52;;;;;;;3.83;3.38;;;22.80;99.90;;;;;;5051888;28;20028;-74
2021/07/24 04:15:20;;;;;;;4.22;3.33;;;22.90;99.90;;;;;;5051997;28;20032;-76
2021/07/24 04:17:46;;;;;;;4.28;3.30;;;22.80;99.90;;;;;;5032605;28;20032;-77
2021/07/24 04:20:12;;;;;;;6.80;3.25;;;22.90;99.90;;;;;;5034875;28;20020;-77
2021/07/24 04:22:38;;;;;;;4.18;3.50;;;22.90;99.90;;;;;;5052229;28;20037;-75
2021/07/24 04:25:04;;;;;;;4.00;3.22;;;22.80;99.90;;;;;;5050124;28;20436;-78
2021/07/24 04:27:29;;;;;;;3.70;3.35;;;22.90;99.90;;;;;;5051732;28;20029;-75
2021/07/24 04:29:58;;;;;;;4.28;3.40;;;22.90;99.90;;;;;;5051729;28;20433;-77
2021/07/24 04:32:23;;;;;;;3.65;3.22;;;22.90;99.90;;;;;;5051850;28;20100;-77
2021/07/24 04:34:49;;;;;;;4.43;3.53;;;22.90;99.90;;;;;;5050679;28;20117;-77
2021/07/24 04:37:15;;;;;;;5.00;3.53;;;22.90;99.90;;;;;;5050799;28;20048;-76
2021/07/24 04:39:40;;;;;;;3.30;3.00;;;22.90;99.90;;;;;;5051557;28;20022;-76
2021/07/24 04:42:06;;;;;;;4.93;3.33;;;22.90;99.90;;;;;;5051691;28;20097;-76
2021/07/24 04:44:32;;;;;;;4.90;3.78;;;22.90;99.90;;;;;;5050276;28;20381;-77
2021/07/24 04:46:57;;;;;;;4.07;3.30;;;22.90;99.90;;;;;;5051274;28;20029;-73
2021/07/24 04:49:23;;;;;;;3.60;3.30;;;22.90;99.90;;;;;;5051575;28;20029;-76
2021/07/24 04:51:48;;;;;;;3.70;3.35;;;22.90;99.90;;;;;;5051453;28;20033;-74
2021/07/24 04:54:15;;;;;;;4.20;3.40;;;22.80;99.90;;;;;;5051329;28;20061;-79
2021/07/24 04:56:41;;;;;;;3.85;3.45;;;22.90;99.90;;;;;;5051041;28;20055;-78
2021/07/24 04:59:07;;;;;;;3.95;3.38;;;22.90;99.90;;;;;;5049937;28;20029;-74
2021/07/24 05:01:35;;;;;;;4.20;3.42;;;22.90;99.90;;;;;;5051414;28;20032;-77
2021/07/24 05:04:01;;;;;;;4.47;3.95;;;22.90;99.90;;;;;;5049963;28;20037;-71
2021/07/24 05:06:30;;;;;;;4.80;3.60;;;22.90;99.90;;;;;;5050896;28;20036;-78
2021/07/24 05:08:56;;;;;;;4.47;3.75;;;22.90;99.90;;;;;;5050680;28;20017;-75
2021/07/24 05:11:21;;;;;;;5.15;3.45;;;22.90;99.90;;;;;;5051230;28;20095;-76
2021/07/24 05:13:47;;;;;;;3.60;3.05;;;22.90;99.90;;;;;;5050988;28;20107;-75
2021/07/24 05:16:13;;;;;;;3.70;3.30;;;22.90;99.90;;;;;;5050975;28;20032;-73
2021/07/24 05:18:38;;;;;;;3.75;3.45;;;22.90;99.90;;;;;;5050975;28;20028;-74
2021/07/24 05:21:04;;;;;;;4.15;3.58;;;22.90;99.90;;;;;;5050835;28;20037;-77
2021/07/24 05:23:30;;;;;;;3.50;3.20;;;22.90;99.90;;;;;;5050900;28;20056;-77
2021/07/24 05:25:55;;;;;;;5.55;4.10;;;22.90;99.90;;;;;;5050343;28;20534;-74
2021/07/24 05:28:21;;;;;;;3.95;3.55;;;22.90;99.90;;;;;;5050895;28;20040;-73
2021/07/24 05:30:47;;;;;;;4.55;3.40;;;22.90;99.90;;;;;;5050900;28;20488;-78
2021/07/24 05:33:12;;;;;;;3.78;3.42;;;22.90;99.90;;;;;;5049232;28;20106;-77
2021/07/24 05:35:38;;;;;;;4.65;3.75;;;22.90;99.90;;;;;;5050709;28;20025;-76
2021/07/24 05:38:03;;;;;;;4.53;3.80;;;22.90;99.90;;;;;;5049190;28;20381;-78
2021/07/24 05:40:29;;;;;;;4.55;4.00;;;22.90;99.90;;;;;;5050548;28;20033;-76
2021/07/24 05:43:01;;;;;;;4.60;3.58;;;22.90;99.90;;;;;;5050850;28;20033;-76
2021/07/24 05:45:26;;;;;;;5.07;3.90;;;22.90;99.90;;;;;;5051179;28;20170;-72
2021/07/24 05:47:52;;;;;;;4.10;3.63;;;22.90;99.90;;;;;;5050104;28;20067;-76
2021/07/24 05:50:18;;;;;;;4.03;3.55;;;22.90;99.90;;;;;;5050912;28;20452;-77
2021/07/24 05:52:43;;;;;;;4.55;4.00;;;22.90;99.90;;;;;;5050984;28;20025;-73
2021/07/24 05:55:09;;;;;;;4.53;4.10;;;22.90;99.90;;;;;;5050711;28;20177;-73
2021/07/24 05:57:38;;;;;;;5.00;3.65;;;22.90;99.90;;;;;;5050471;28;20061;-75
2021/07/24 06:00:05;;;;;;;4.20;3.38;;;22.90;99.90;;;;;;5050553;28;20096;-78
2021/07/24 06:02:31;;;;;;;5.50;3.88;;;22.90;99.90;;;;;;5050652;28;20043;-77
2021/07/24 06:04:56;;;;;;;4.18;3.78;;;22.90;99.90;;;;;;5050102;28;20041;-72
2021/07/24 06:07:22;;;;;;;4.32;3.75;;;22.90;99.90;;;;;;5050917;28;20032;-77
2021/07/24 06:09:47;;;;;;;4.47;4.00;;;22.90;99.90;;;;;;5050774;28;20022;-75
2021/07/24 06:12:13;;;;;;;4.43;4.03;;;22.90;99.90;;;;;;5050182;28;20033;-74
2021/07/24 06:14:38;;;;;;;4.88;4.13;;;22.90;99.90;;;;;;5050681;28;20465;-72
2021/07/24 06:17:04;;;;;;;4.40;3.90;;;22.90;99.90;;;;;;5049749;28;20033;-73
2021/07/24 06:19:30;;;;;;;4.50;4.10;;;22.90;99.90;;;;;;5049247;28;20489;-76
2021/07/24 06:21:56;;;;;;;4.15;3.78;;;22.90;99.90;;;;;;5050466;28;20477;-76
2021/07/24 06:24:21;;;;;;;4.05;3.65;;;22.90;99.90;;;;;;5050411;28;20470;-72
2021/07/24 06:26:47;;;;;;;4.50;4.10;;;22.90;99.90;;;;;;5050170;28;20090;-71
2021/07/24 06:29:13;;;;;;;4.53;4.10;;;22.90;99.90;;;;;;5049563;28;20025;-73
2021/07/24 06:31:38;;;;;;;4.53;4.13;;;22.90;99.90;;;;;;5050031;28;20078;-75
2021/07/24 06:34:04;;;;;;;4.63;4.20;;;22.90;99.90;;;;;;5050833;28;20032;-72
2021/07/24 06:36:30;;;;;;;4.97;4.45;;;22.90;99.90;;;;;;5050419;28;20021;-73
2021/07/24 06:38:56;;;;;;;7.65;5.85;;;22.90;99.90;;;;;;5053204;28;20075;-78
2021/07/24 06:41:23;;;;;;;7.18;5.50;;;22.80;99.90;;;;;;5053365;28;20029;-79
2021/07/24 06:43:48;;;;;;;6.95;6.05;;;22.90;99.90;;;;;;5054131;28;20029;-65
2021/07/24 06:46:16;;;;;;;7.78;6.10;;;22.90;99.90;;;;;;5053913;28;20044;-69
2021/07/24 06:48:42;;;;;;;8.57;5.72;;;22.80;99.90;;;;;;5053790;28;20048;-69
2021/07/24 06:51:08;;;;;;;8.52;7.32;;;22.90;99.90;;;;;;5053597;28;20469;-71
2021/07/24 06:53:35;;;;;;;9.38;8.27;;;22.70;99.90;;;;;;5053634;28;20397;-76
2021/07/24 06:56:04;;;;;;;11.00;8.15;;;22.50;99.90;;;;;;5053428;28;20104;-75
2021/07/24 06:58:31;;;;;;;9.75;8.48;;;22.40;99.90;;;;;;5053254;28;20032;-69
2021/07/24 07:00:57;;;;;;;9.32;7.95;;;22.40;99.90;;;;;;5053365;28;20081;-71
2021/07/24 07:03:23;;;;;;;10.65;8.20;;;22.40;99.90;;;;;;5053120;28;20033;-79
2021/07/24 07:05:49;;;;;;;11.98;8.40;;;22.50;99.90;;;;;;5052525;28;20033;-77
2021/07/24 07:08:15;;;;;;;10.65;7.80;;;22.40;99.90;;;;;;5053176;28;20032;-72
2021/07/24 07:10:41;;;;;;;11.52;9.30;;;22.30;99.90;;;;;;5053065;28;20013;-74
2021/07/24 07:13:07;;;;;;;10.77;9.05;;;22.30;99.90;;;;;;5053141;28;20036;-74
2021/07/24 07:15:33;;;;;;;10.40;8.48;;;22.30;99.90;;;;;;5053344;28;20070;-76
2021/07/24 07:17:59;;;;;;;12.80;9.35;;;22.30;99.90;;;;;;5053089;28;20078;-74
2021/07/24 07:20:25;;;;;;;11.43;8.93;;;22.40;99.90;;;;;;5052392;28;20486;-78
2021/07/24 07:22:50;;;;;;;9.35;8.35;;;22.50;99.90;;;;;;5052997;28;20037;-71
2021/07/24 07:25:16;;;;;;;11.75;9.45;;;22.60;99.90;;;;;;5053183;28;20041;-78
2021/07/24 07:27:43;;;;;;;13.40;10.52;;;22.50;99.90;;;;;;5053183;28;20121;-74
2021/07/24 07:30:11;;;;;;;11.88;9.82;;;22.40;99.90;;;;;;5053190;28;20025;-77
2021/07/24 07:32:36;;;;;;;15.98;10.68;;;22.50;99.90;;;;;;5053286;28;20032;-73
2021/07/24 07:35:02;;;;;;;13.52;10.02;;;22.60;99.90;;;;;;5052975;28;20036;-69
2021/07/24 07:37:28;;;;;;;11.50;10.02;;;22.60;99.90;;;;;;5052540;28;20543;-76
2021/07/24 07:39:54;;;;;;;15.32;11.07;;;22.50;99.90;;;;;;5053104;28;20022;-72
2021/07/24 07:42:20;;;;;;;15.02;10.20;;;22.50;99.90;;;;;;5053211;28;20029;-72
2021/07/24 07:44:45;;;;;;;12.88;10.10;;;22.60;99.90;;;;;;5053271;28;20067;-71
2021/07/24 07:47:11;;;;;;;15.50;9.73;;;22.60;99.90;;;;;;5052568;28;20025;-74
2021/07/24 07:49:37;;;;;;;12.45;9.98;;;22.60;99.90;;;;;;5051121;28;20025;-73
2021/07/24 07:52:04;;;;;;;13.00;10.50;;;22.70;99.90;;;;;;5051202;28;20040;-72
2021/07/24 07:54:30;;;;;;;12.82;9.73;;;22.60;99.90;;;;;;5051590;28;20075;-76
2021/07/24 07:56:57;;;;;;;12.85;10.02;;;22.60;99.90;;;;;;5050728;28;20100;-73
2021/07/24 07:59:24;;;;;;;11.93;10.23;;;22.60;99.90;;;;;;5051236;28;20032;-70
2021/07/24 08:01:49;;;;;;;13.63;11.02;;;22.70;99.90;;;;;;5052663;28;20115;-65
2021/07/24 08:04:15;;;;;;;12.98;10.45;;;22.70;99.90;;;;;;5052899;28;20051;-72
2021/07/24 08:06:40;;;;;;;13.40;10.40;;;22.70;99.90;;;;;;5052041;28;20370;-78
2021/07/24 08:09:06;;;;;;;16.38;10.15;;;22.80;99.90;;;;;;5052244;28;20042;-75
2021/07/24 08:11:32;;;;;;;13.50;9.88;;;22.80;99.90;;;;;;5051277;28;20024;-75
2021/07/24 08:13:57;;;;;;;11.52;10.32;;;22.80;99.90;;;;;;5051855;28;20029;-78
2021/07/24 08:16:23;;;;;;;13.52;10.65;;;22.80;99.90;;;;;;5052138;28;20016;-80
2021/07/24 08:18:49;;;;;;;14.15;11.07;;;22.80;99.90;;;;;;5052749;28;20516;-76
2021/07/24 08:21:15;;;;;;;13.38;10.32;;;22.80;99.90;;;;;;5051994;28;20021;-72
2021/07/24 08:23:40;;;;;;;12.30;10.63;;;22.80;99.90;;;;;;5051336;28;20175;-74
2021/07/24 08:26:06;;;;;;;12.98;11.65;;;22.70;99.90;;;;;;5051432;28;20538;-76
2021/07/24 08:28:32;;;;;;;17.23;10.82;;;22.70;99.90;;;;;;5051150;28;20050;-73
2021/07/24 08:30:59;;;;;;;18.00;11.90;;;22.70;99.90;;;;;;5052875;28;20036;-76
2021/07/24 08:33:25;;;;;;;14.25;11.07;;;22.70;99.90;;;;;;5051094;28;20017;-74
2021/07/24 08:35:50;;;;;;;18.90;11.00;;;22.80;99.90;;;;;;5052449;28;20028;-73
2021/07/24 08:38:16;;;;;;;17.02;10.77;;;22.80;99.90;;;;;;5051253;28;20104;-72
2021/07/24 08:40:45;;;;;;;17.58;11.80;;;22.80;99.90;;;;;;5052065;28;20031;-75
2021/07/24 08:43:11;;;;;;;12.25;10.70;;;22.80;99.90;;;;;;5051073;28;20555;-76
2021/07/24 08:45:36;;;;;;;13.75;11.38;;;22.80;99.90;;;;;;5051867;28;20037;-75
2021/07/24 08:48:06;;;;;;;15.45;11.10;;;22.80;99.90;;;;;;5051652;28;20048;-76
2021/07/24 08:50:35;;;;;;;13.35;10.82;;;22.80;99.90;;;;;;5051059;28;20383;-77
2021/07/24 08:53:04;;;;;;;14.32;10.90;;;22.90;99.90;;;;;;5051434;28;20017;-75
2021/07/24 08:55:30;;;;;;;12.18;10.77;;;22.80;99.90;;;;;;5051213;28;20072;-74
2021/07/24 08:57:58;;;;;;;14.45;11.40;;;22.80;99.90;;;;;;5054725;28;20495;-75
2021/07/24 09:00:26;;;;;;;12.88;10.88;;;22.90;99.90;;;;;;5049664;28;20037;-75
2021/07/24 09:02:53;;;;;;;14.27;10.85;;;22.90;99.90;;;;;;5048686;28;20041;-74
2021/07/24 09:05:19;;;;;;;12.82;10.93;;;23.00;99.90;;;;;;5049796;28;20473;-75
2021/07/24 09:07:47;;;;;;;11.85;10.15;;;23.00;99.90;;;;;;5050409;28;20036;-76
2021/07/24 09:10:14;;;;;;;12.15;10.73;;;23.00;99.90;;;;;;5049790;28;20469;-77
2021/07/24 09:12:52;;;;;;;12.98;10.30;;;23.00;99.90;;;;;;5050091;28;20136;-75
2021/07/24 09:15:18;;;;;;;12.43;10.23;;;23.00;99.90;;;;;;5051375;28;20017;-77
2021/07/24 09:17:45;;;;;;;12.32;10.52;;;23.10;99.90;;;;;;5051052;28;20045;-75
2021/07/24 09:20:12;;;;;;;13.02;11.07;;;23.10;99.90;;;;;;5050976;28;20373;-76
2021/07/24 09:22:39;;;;;;;13.90;10.43;;;23.20;99.90;;;;;;5051349;28;20037;-71
2021/07/24 09:25:14;;;;;;;14.57;10.65;;;23.20;99.90;;;;;;5050223;28;20029;-75
2021/07/24 09:27:41;;;;;;;13.48;10.88;;;23.20;99.90;;;;;;5051232;28;20079;-73
2021/07/24 09:30:10;;;;;;;13.15;9.93;;;23.20;99.90;;;;;;5051141;28;20401;-73
2021/07/24 09:32:36;;;;;;;11.40;8.95;;;23.20;99.90;;;;;;5050298;28;20040;-71
2021/07/24 09:35:02;;;;;;;13.63;9.75;;;23.30;99.90;;;;;;5050245;28;20413;-74
2021/07/24 09:37:32;;;;;;;9.75;8.73;;;23.30;99.90;;;;;;5049289;28;20036;-70
2021/07/24 09:40:22;;;;;;;12.60;9.25;;;23.30;99.90;;;;;;5051029;28;20048;-68
2021/07/24 09:42:48;;;;;;;9.25;8.35;;;23.30;99.90;;;;;;5051400;28;20039;-78
2021/07/24 09:45:13;;;;;;;10.00;8.70;;;23.30;99.90;;;;;;5051136;28;20048;-77
2021/07/24 09:47:39;;;;;;;10.77;8.57;;;23.30;99.90;;;;;;5051114;28;20029;-74
2021/07/24 09:50:09;;;;;;;9.98;8.27;;;23.30;99.90;;;;;;5051265;28;20021;-72
2021/07/24 09:52:44;;;;;;;10.07;8.32;;;23.30;99.90;;;;;;5050925;28;20024;-70
2021/07/24 09:55:23;;;;;;;10.27;8.48;;;23.40;99.90;;;;;;5050760;28;20036;-73
2021/07/24 09:57:50;;;;;;;10.70;8.50;;;23.40;99.90;;;;;;5051314;28;20021;-72
2021/07/24 10:00:19;;;;;;;8.63;7.68;;;23.40;99.90;;;;;;5051518;28;20096;-74
2021/07/24 10:02:45;;;;;;;9.55;8.20;;;23.50;99.90;;;;;;5051198;28;20128;-73
2021/07/24 10:05:11;;;;;;;8.98;7.88;;;23.40;99.90;;;;;;5050619;28;20078;-76
2021/07/24 10:07:37;;;;;;;9.57;7.90;;;23.50;99.90;;;;;;5051016;28;20032;-71
2021/07/24 10:10:04;;;;;;;8.05;7.25;;;23.50;99.90;;;;;;5050690;28;20029;-75
2021/07/24 10:12:29;;;;;;;8.55;7.70;;;23.60;99.90;;;;;;5053718;28;20051;-75
2021/07/24 10:14:55;;;;;;;9.38;8.45;;;23.60;99.90;;;;;;5054465;28;20025;-74
2021/07/24 10:17:21;;;;;;;10.02;8.25;;;23.70;99.90;;;;;;5054899;28;20032;-77
2021/07/24 10:19:47;;;;;;;9.38;7.75;;;23.70;99.90;;;;;;5055081;28;20032;-71
2021/07/24 10:22:13;;;;;;;8.35;7.45;;;23.70;99.90;;;;;;5054519;28;20033;-70
2021/07/24 10:24:39;;;;;;;8.98;7.53;;;23.70;99.90;;;;;;5054541;28;20491;-70
2021/07/24 10:27:09;;;;;;;8.38;7.47;;;23.70;99.90;;;;;;5054541;28;20086;-74
2021/07/24 10:29:41;;;;;;;8.52;7.63;;;23.80;99.90;;;;;;5054677;28;20070;-77
2021/07/24 10:32:13;;;;;;;10.60;7.90;;;23.80;99.90;;;;;;5054234;28;20022;-72
2021/07/24 10:34:51;;;;;;;8.90;7.57;;;23.70;99.90;;;;;;5054534;28;20033;-77
2021/07/24 10:37:34;;;;;;;8.20;7.40;;;23.80;99.90;;;;;;5054578;28;20028;-76
2021/07/24 10:40:15;;;;;;;9.13;7.60;;;23.80;99.90;;;;;;5053931;28;20083;-76
2021/07/24 10:42:42;;;;;;;7.53;6.72;;;23.80;99.90;;;;;;5054026;28;20033;-73
2021/07/24 10:45:45;;;;;;;8.95;7.40;;;23.80;99.90;;;;;;5053792;28;20419;-72
2021/07/24 10:48:13;;;;;;;8.60;7.70;;;23.80;99.90;;;;;;5052582;28;20481;-76
2021/07/24 10:50:57;;;;;;;8.77;6.80;;;23.90;99.90;;;;;;5054094;28;20104;-74
2021/07/24 10:53:29;;;;;;;8.25;7.43;;;23.80;99.90;;;;;;5054151;28;20376;-78
2021/07/24 10:55:57;;;;;;;8.10;7.30;;;23.90;99.90;;;;;;5053825;28;20044;-74
2021/07/24 10:58:25;;;;;;;8.25;6.95;;;23.90;99.90;;;;;;5054063;28;20025;-73
2021/07/24 11:00:54;;;;;;;8.75;7.95;;;23.90;99.90;;;;;;5053632;28;20021;-78
2021/07/24 11:03:46;;;;;;;7.65;6.85;;;23.90;99.90;;;;;;5054060;28;20552;-74
2021/07/24 11:06:31;;;;;;;8.50;7.60;;;24.00;99.90;;;;;;5053619;28;20037;-76
2021/07/24 11:09:09;;;;;;;8.23;7.30;;;24.00;99.90;;;;;;5053567;28;20031;-76
2021/07/24 11:11:57;;;;;;;7.60;6.80;;;24.00;99.90;;;;;;5053610;28;20416;-77
2021/07/24 11:14:34;;;;;;;8.40;7.13;;;24.00;99.90;;;;;;5053470;28;20029;-77
2021/07/24 11:17:11;;;;;;;7.43;6.53;;;24.10;99.90;;;;;;5053092;28;20024;-76
2021/07/24 11:19:52;;;;;;;7.25;6.43;;;24.10;99.90;;;;;;5053447;28;20120;-78
2021/07/24 11:22:25;;;;;;;7.70;6.82;;;24.10;99.90;;;;;;5052960;28;20431;-76
2021/07/24 11:24:50;;;;;;;9.27;6.93;;;24.20;99.90;;;;;;5050336;28;20385;-75
2021/07/24 11:27:28;;;;;;;7.03;6.32;;;24.20;99.90;;;;;;5052657;28;20032;-71
2021/07/24 11:30:04;;;;;;;8.75;6.53;;;24.20;99.90;;;;;;5049896;28;20434;-78
2021/07/24 11:32:38;;;;;;;7.30;6.55;;;24.20;99.90;;;;;;5049212;28;20021;-71
2021/07/24 11:35:11;;;;;;;;;;;24.20;99.90;;;;;;5051682;28;20040;-69
2021/07/24 11:37:48;;;;;;;7.93;6.65;;;24.20;99.90;;;;;;5052067;28;19904;-76
2021/07/24 11:40:15;;;;;;;7.85;7.05;;;24.30;99.90;;;;;;5050745;28;20122;-76
2021/07/24 11:42:42;;;;;;;7.32;6.50;;;24.30;99.90;;;;;;5052812;28;20417;-75
2021/07/24 11:45:09;;;;;;;8.95;6.63;;;24.30;99.90;;;;;;5052866;28;20416;-76
2021/07/24 11:47:34;;;;;;;7.07;6.38;;;24.30;99.90;;;;;;5051899;28;20549;-75
2021/07/24 11:50:20;;;;;;;7.40;6.60;;;24.30;99.90;;;;;;5052732;28;20056;-72
2021/07/24 11:52:50;;;;;;;6.82;6.22;;;24.30;99.90;;;;;;5052576;28;20055;-72
2021/07/24 11:55:28;;;;;;;7.43;6.72;;;24.40;99.90;;;;;;5052615;28;20029;-72
2021/07/24 11:58:07;;;;;;;7.75;6.95;;;24.40;99.90;;;;;;5052587;28;20025;-70
2021/07/24 12:00:49;;;;;;;9.88;7.05;;;24.40;99.90;;;;;;5052471;28;20021;-70
2021/07/24 12:03:20;;;;;;;7.80;6.60;;;24.40;99.90;;;;;;5052960;28;20057;-70
2021/07/24 12:06:08;;;;;;;8.10;6.50;;;24.50;99.90;;;;;;5052131;28;20049;-70
2021/07/24 12:08:35;;;;;;;9.05;6.70;;;24.50;99.90;;;;;;5052558;28;20035;-70
2021/07/24 12:11:01;;;;;;;7.55;6.20;;;24.50;99.90;;;;;;5052196;28;20470;-72
2021/07/24 12:13:28;;;;;;;7.32;6.57;;;24.60;99.90;;;;;;5052487;28;20086;-72
2021/07/24 12:16:10;;;;;;;6.50;5.82;;;24.50;99.90;;;;;;5050665;28;20079;-72
2021/07/24 12:18:47;;;;;;;7.93;6.25;;;24.60;99.90;;;;;;5049928;28;20074;-70
2021/07/24 12:21:14;;;;;;;8.85;5.72;;;24.60;99.90;;;;;;5050697;28;20116;-71
2021/07/24 12:23:44;;;;;;;7.32;5.90;;;24.60;99.90;;;;;;5050086;28;20484;-70
2021/07/24 12:26:11;;;;;;;6.95;6.25;;;24.60;99.90;;;;;;5049420;28;20036;-70
2021/07/24 12:28:37;;;;;;;7.35;6.22;;;24.60;99.90;;;;;;5050787;28;20389;-71
2021/07/24 12:31:21;;;;;;;6.60;5.82;;;24.70;99.90;;;;;;5050506;28;20075;-72
2021/07/24 12:33:48;;;;;;;7.90;5.82;;;24.70;99.90;;;;;;5049569;28;20028;-70
2021/07/24 12:36:15;;;;;;;6.68;5.97;;;24.70;99.90;;;;;;5048279;28;20033;-70
2021/07/24 12:38:41;;;;;;;7.10;6.25;;;24.70;99.90;;;;;;5048153;28;20032;-71
2021/07/24 12:41:07;;;;;;;8.77;6.43;;;24.70;99.90;;;;;;5050248;28;20082;-73
2021/07/24 12:43:33;;;;;;;6.80;5.95;;;24.80;99.90;;;;;;5049859;28;20045;-70
2021/07/24 12:46:12;;;;;;;6.55;5.95;;;24.80;99.90;;;;;;5050258;28;20151;-70
2021/07/24 12:48:45;;;;;;;6.85;5.63;;;24.70;99.90;;;;;;5050343;28;20021;-72